createdAt,value
2023-01-19T00:01:18.254Z,0.84
2023-01-19T00:03:52.844Z,0.81
2023-01-19T00:06:25.722Z,0.93
2023-01-19T00:08:58.694Z,0.90
2023-01-19T00:11:31.788Z,0.90
2023-01-19T00:14:04.849Z,0.97
2023-01-19T00:16:37.779Z,1.00
2023-01-19T00:19:11.966Z,0.99
2023-01-19T00:21:44.851Z,1.05
2023-01-19T00:24:17.681Z,1.02
2023-01-19T00:26:50.558Z,1.04
2023-01-19T00:29:23.988Z,1.07
2023-01-19T00:31:56.854Z,1.08
2023-01-19T00:34:36.743Z,1.15
2023-01-19T00:37:09.970Z,1.12
2023-01-19T00:39:43.056Z,1.15
2023-01-19T00:42:33.655Z,1.19
2023-01-19T00:45:07.555Z,1.26
2023-01-19T00:47:40.661Z,1.27
2023-01-19T00:50:17.472Z,1.30
2023-01-19T00:52:51.011Z,1.37
2023-01-19T00:55:24.705Z,1.41
2023-01-19T00:57:57.618Z,1.44
2023-01-19T01:00:30.623Z,1.39
2023-01-19T01:03:04.091Z,1.34
2023-01-19T01:05:41.508Z,1.39
2023-01-19T01:08:14.364Z,1.46
2023-01-19T01:10:47.189Z,1.39
2023-01-19T01:13:21.727Z,1.48
2023-01-19T01:15:58.178Z,1.52
2023-01-19T01:18:31.106Z,1.50
2023-01-19T01:21:06.510Z,1.46
2023-01-19T01:23:39.366Z,1.45
2023-01-19T01:26:12.220Z,1.46
2023-01-19T01:28:45.099Z,1.44
2023-01-19T01:31:18.436Z,1.39
2023-01-19T01:33:51.360Z,1.49
2023-01-19T01:36:29.019Z,1.51
2023-01-19T01:39:01.959Z,1.46
2023-01-19T01:41:35.145Z,1.54
2023-01-19T01:44:49.370Z,1.52
2023-01-19T01:47:28.895Z,1.48
2023-01-19T01:50:07.313Z,1.49
2023-01-19T01:53:06.347Z,1.48
2023-01-19T01:55:45.114Z,1.38
2023-01-19T01:58:18.060Z,1.47
2023-01-19T02:01:08.451Z,1.48
2023-01-19T02:03:41.529Z,1.53
2023-01-19T02:06:15.709Z,1.54
2023-01-19T02:09:13.722Z,1.55
2023-01-19T02:12:03.870Z,1.61
2023-01-19T02:14:37.774Z,1.57
2023-01-19T02:17:10.586Z,1.57
2023-01-19T02:19:44.763Z,1.58
2023-01-19T02:22:23.866Z,1.57
2023-01-19T02:24:58.825Z,1.57
2023-01-19T02:27:32.895Z,1.61
2023-01-19T02:30:07.188Z,1.59
2023-01-19T02:32:40.241Z,1.56
2023-01-19T02:35:14.127Z,1.55
2023-01-19T02:37:47.866Z,1.56
2023-01-19T02:40:24.893Z,1.55
2023-01-19T02:43:00.907Z,1.53
2023-01-19T02:45:34.194Z,1.50
2023-01-19T02:48:07.577Z,1.49
2023-01-19T02:50:46.084Z,1.51
2023-01-19T02:53:48.523Z,1.55
2023-01-19T02:56:40.104Z,1.52
2023-01-19T02:59:24.025Z,1.48
2023-01-19T03:02:11.662Z,1.50
2023-01-19T03:04:59.344Z,1.49
2023-01-19T03:07:43.317Z,1.46
2023-01-19T03:10:21.470Z,1.49
2023-01-19T03:13:01.891Z,1.45
2023-01-19T03:15:43.228Z,1.43
2023-01-19T03:18:20.788Z,1.40
2023-01-19T03:20:56.800Z,1.37
2023-01-19T03:23:32.959Z,1.35
2023-01-19T03:26:10.229Z,1.34
2023-01-19T03:28:46.774Z,1.34
2023-01-19T03:31:23.883Z,1.34
2023-01-19T03:34:01.397Z,1.38
2023-01-19T03:36:38.223Z,1.36
2023-01-19T03:39:13.297Z,1.38
2023-01-19T03:41:49.103Z,1.40
2023-01-19T03:44:23.439Z,1.40
2023-01-19T03:46:58.087Z,1.43
2023-01-19T03:49:32.632Z,1.44
2023-01-19T03:52:06.231Z,1.44
2023-01-19T03:54:39.241Z,1.48
2023-01-19T03:57:12.789Z,1.51
2023-01-19T03:59:46.901Z,1.54
2023-01-19T04:02:22.293Z,1.55
2023-01-19T04:04:55.113Z,1.45
2023-01-19T04:07:28.603Z,1.34
2023-01-19T04:10:01.504Z,1.16
2023-01-19T04:12:34.248Z,1.11
2023-01-19T04:15:09.079Z,0.98
2023-01-19T04:17:42.579Z,0.81
2023-01-19T04:20:15.443Z,0.74
2023-01-19T04:22:48.986Z,0.64
2023-01-19T04:25:22.101Z,0.55
2023-01-19T04:27:57.890Z,0.53
2023-01-19T04:30:32.141Z,0.53
2023-01-19T04:33:05.180Z,0.59
2023-01-19T04:35:38.074Z,0.53
2023-01-19T04:38:11.099Z,0.54
2023-01-19T04:40:44.031Z,0.55
2023-01-19T04:43:17.100Z,0.57
2023-01-19T04:45:51.962Z,0.55
2023-01-19T04:48:24.808Z,0.48
2023-01-19T04:50:57.783Z,0.52
2023-01-19T04:53:30.683Z,0.50
2023-01-19T04:56:03.840Z,0.52
2023-01-19T04:58:36.789Z,0.56
2023-01-19T05:01:11.106Z,0.56
2023-01-19T05:03:44.039Z,0.58
2023-01-19T05:06:16.837Z,0.57
2023-01-19T05:08:50.205Z,0.60
2023-01-19T05:11:23.035Z,0.62
2023-01-19T05:13:55.794Z,0.58
2023-01-19T05:16:30.154Z,0.59
2023-01-19T05:19:02.960Z,0.57
2023-01-19T05:21:35.898Z,0.59
2023-01-19T05:24:09.612Z,0.59
2023-01-19T05:26:42.765Z,0.57
2023-01-19T05:29:15.608Z,0.51
2023-01-19T05:31:49.786Z,0.52
2023-01-19T05:34:22.700Z,0.45
2023-01-19T05:36:55.557Z,0.47
2023-01-19T05:39:29.517Z,0.42
2023-01-19T05:42:02.463Z,0.35
2023-01-19T05:44:35.274Z,0.35
2023-01-19T05:47:09.613Z,0.34
2023-01-19T05:49:42.377Z,0.33
2023-01-19T05:52:15.485Z,0.32
2023-01-19T05:54:48.759Z,0.34
2023-01-19T05:57:21.920Z,0.33
2023-01-19T05:59:55.109Z,0.37
2023-01-19T06:02:30.071Z,0.33
2023-01-19T06:05:04.431Z,0.38
2023-01-19T06:07:37.267Z,0.37
2023-01-19T06:10:11.210Z,0.37
2023-01-19T06:12:44.034Z,0.37
2023-01-19T06:15:16.869Z,0.40
2023-01-19T06:17:51.092Z,0.40
2023-01-19T06:20:24.099Z,0.40
2023-01-19T06:22:58.036Z,0.32
2023-01-19T06:25:31.130Z,0.36
2023-01-19T06:28:04.009Z,0.33
2023-01-19T06:30:36.855Z,0.37
2023-01-19T06:33:11.236Z,0.43
2023-01-19T06:35:44.589Z,0.37
2023-01-19T06:38:19.171Z,0.32
2023-01-19T06:40:58.322Z,0.39
2023-01-19T06:43:31.946Z,0.37
2023-01-19T06:46:04.837Z,0.39
2023-01-19T06:48:39.055Z,0.37
2023-01-19T06:51:11.842Z,0.36
2023-01-19T06:53:44.617Z,0.35
2023-01-19T06:56:17.454Z,0.36
2023-01-19T06:58:53.004Z,0.36
2023-01-19T07:01:26.766Z,0.35
2023-01-19T07:04:00.959Z,0.30
2023-01-19T07:06:33.804Z,0.32
2023-01-19T07:09:07.974Z,0.36
2023-01-19T07:11:41.055Z,0.42
2023-01-19T07:14:13.926Z,0.45
2023-01-19T07:16:46.860Z,0.47
2023-01-19T07:19:20.988Z,0.49
2023-01-19T07:21:53.779Z,0.45
2023-01-19T07:24:26.917Z,0.44
2023-01-19T07:26:59.717Z,0.47
2023-01-19T07:29:32.528Z,0.46
2023-01-19T07:32:05.965Z,0.49
2023-01-19T07:34:40.095Z,0.51
2023-01-19T07:37:12.983Z,0.44
2023-01-19T07:39:45.764Z,0.52
2023-01-19T07:42:18.583Z,0.47
2023-01-19T07:44:52.462Z,0.38
2023-01-19T07:47:25.255Z,0.48
2023-01-19T07:49:59.390Z,0.47
2023-01-19T07:52:32.231Z,0.56
2023-01-19T07:55:05.438Z,0.58
2023-01-19T07:57:38.478Z,0.67
2023-01-19T08:00:14.305Z,0.69
2023-01-19T08:02:49.950Z,0.70
2023-01-19T08:05:23.962Z,0.77
2023-01-19T08:07:57.553Z,0.79
2023-01-19T08:10:30.572Z,0.78
2023-01-19T08:13:03.943Z,0.78
2023-01-19T08:15:37.542Z,0.79
2023-01-19T08:18:11.591Z,0.83
2023-01-19T08:20:45.908Z,0.87
2023-01-19T08:23:20.102Z,0.89
2023-01-19T08:25:53.179Z,0.83
2023-01-19T08:28:26.413Z,0.88
2023-01-19T08:31:05.339Z,0.93
2023-01-19T08:33:47.513Z,0.93
2023-01-19T08:36:22.534Z,0.89
2023-01-19T08:38:55.213Z,0.87
2023-01-19T08:41:28.153Z,0.83
2023-01-19T08:44:01.103Z,0.91
2023-01-19T08:46:34.125Z,0.97
2023-01-19T08:49:07.328Z,1.00
2023-01-19T08:51:41.511Z,1.06
2023-01-19T08:54:17.073Z,1.08
2023-01-19T08:56:51.096Z,1.09
2023-01-19T08:59:23.855Z,1.13
2023-01-19T09:01:56.734Z,1.15
2023-01-19T09:04:29.834Z,1.12
2023-01-19T09:09:39.613Z,1.17
2023-01-19T09:12:12.550Z,1.32
2023-01-19T09:14:45.609Z,1.38
2023-01-19T09:17:18.686Z,1.34
2023-01-19T09:19:51.457Z,1.44
2023-01-19T09:22:25.992Z,1.47
2023-01-19T09:24:58.828Z,1.48
2023-01-19T09:27:31.844Z,1.49
2023-01-19T09:30:11.899Z,1.51
2023-01-19T09:32:44.954Z,1.60
2023-01-19T09:35:17.893Z,1.67
2023-01-19T09:37:51.995Z,1.70
2023-01-19T09:40:24.839Z,1.78
2023-01-19T09:43:04.851Z,1.76
2023-01-19T09:45:45.946Z,1.72
2023-01-19T09:48:37.163Z,1.69
2023-01-19T09:51:15.446Z,1.72
2023-01-19T09:53:56.541Z,1.70
2023-01-19T09:56:30.858Z,1.66
2023-01-19T09:59:21.741Z,1.65
2023-01-19T10:02:11.238Z,1.59
2023-01-19T10:04:51.576Z,1.64
2023-01-19T10:07:34.233Z,1.61
2023-01-19T10:10:18.599Z,1.65
2023-01-19T10:13:17.182Z,1.63
2023-01-19T10:15:58.191Z,1.68
2023-01-19T10:18:46.099Z,1.67
2023-01-19T10:21:22.495Z,1.69
2023-01-19T10:23:59.735Z,1.74
2023-01-19T10:26:36.296Z,1.84
2023-01-19T10:29:16.750Z,1.89
2023-01-19T10:31:51.772Z,1.83
2023-01-19T10:34:24.585Z,1.76
2023-01-19T10:37:03.578Z,1.75
2023-01-19T10:39:38.714Z,1.80
2023-01-19T10:42:16.141Z,1.85
2023-01-19T10:44:50.707Z,1.92
2023-01-19T10:47:33.265Z,2.16
2023-01-19T10:50:24.620Z,2.11
2023-01-19T10:53:00.094Z,2.27
2023-01-19T10:55:37.731Z,2.19
2023-01-19T10:58:28.957Z,2.20
2023-01-19T11:01:15.368Z,2.23
2023-01-19T11:03:48.800Z,2.19
2023-01-19T11:06:25.105Z,2.34
2023-01-19T11:09:13.380Z,2.28
2023-01-19T11:11:49.329Z,2.36
2023-01-19T11:14:25.458Z,2.38
2023-01-19T11:17:00.036Z,2.40
2023-01-19T11:19:34.362Z,2.10
2023-01-19T11:22:21.452Z,2.25
2023-01-19T11:24:59.400Z,2.20
2023-01-19T11:27:35.689Z,2.15
2023-01-19T11:30:20.619Z,2.06
2023-01-19T11:32:53.519Z,2.19
2023-01-19T11:35:34.254Z,2.42
2023-01-19T11:38:18.289Z,2.42
2023-01-19T11:40:54.310Z,2.35
2023-01-19T11:43:47.401Z,2.38
2023-01-19T11:46:25.946Z,2.48
2023-01-19T11:49:03.757Z,2.43
2023-01-19T11:51:42.819Z,2.56
2023-01-19T11:54:23.552Z,2.49
2023-01-19T11:56:59.851Z,2.51
2023-01-19T11:59:32.615Z,2.43
2023-01-19T12:02:18.468Z,2.45
2023-01-19T12:04:55.381Z,2.46
2023-01-19T12:07:31.558Z,2.42
2023-01-19T12:10:18.807Z,2.52
2023-01-19T12:12:53.264Z,2.49
2023-01-19T12:15:33.231Z,2.49
2023-01-19T12:18:11.623Z,2.49
2023-01-19T12:20:48.414Z,2.64
2023-01-19T12:23:38.375Z,2.64
2023-01-19T12:26:28.067Z,2.63
2023-01-19T12:29:05.276Z,2.75
2023-01-19T12:31:40.476Z,2.54
2023-01-19T12:34:41.581Z,2.53
2023-01-19T12:37:37.258Z,2.43
2023-01-19T12:40:24.454Z,2.61
2023-01-19T12:43:01.716Z,2.67
2023-01-19T12:45:36.519Z,2.84
2023-01-19T12:48:25.283Z,2.79
2023-01-19T12:50:59.475Z,2.61
2023-01-19T12:53:32.456Z,2.67
2023-01-19T12:56:09.954Z,2.77
2023-01-19T12:58:50.017Z,2.72
2023-01-19T13:01:24.745Z,2.88
2023-01-19T13:04:04.238Z,2.81
2023-01-19T13:07:10.407Z,2.90
2023-01-19T13:09:43.509Z,2.77
2023-01-19T13:12:24.625Z,2.87
2023-01-19T13:15:25.949Z,2.78
2023-01-19T13:17:59.004Z,2.92
2023-01-19T13:20:44.573Z,3.04
2023-01-19T13:23:23.683Z,2.98
2023-01-19T13:26:04.888Z,2.72
2023-01-19T13:28:42.500Z,2.98
2023-01-19T13:31:16.418Z,2.78
2023-01-19T13:33:53.040Z,2.89
2023-01-19T13:36:30.796Z,2.85
2023-01-19T13:39:07.509Z,2.86
2023-01-19T13:41:41.902Z,2.95
2023-01-19T13:44:20.007Z,2.97
2023-01-19T13:46:54.837Z,2.92
2023-01-19T13:49:31.254Z,2.82
2023-01-19T13:52:08.735Z,2.89
2023-01-19T13:54:50.779Z,2.82
2023-01-19T13:57:25.898Z,2.89
2023-01-19T14:00:02.400Z,2.92
2023-01-19T14:02:54.304Z,2.88
2023-01-19T14:05:32.864Z,2.94
2023-01-19T14:08:12.795Z,2.87
2023-01-19T14:10:51.076Z,2.86
2023-01-19T14:13:26.162Z,2.86
2023-01-19T14:15:59.646Z,2.90
2023-01-19T14:18:33.909Z,2.86
2023-01-19T14:21:08.703Z,2.82
2023-01-19T14:23:47.991Z,2.82
2023-01-19T14:26:43.076Z,2.85
2023-01-19T14:29:27.966Z,2.88
2023-01-19T14:32:13.561Z,2.86
2023-01-19T14:34:48.509Z,2.72
2023-01-19T14:37:27.337Z,2.57
2023-01-19T14:40:04.633Z,2.55
2023-01-19T14:42:46.546Z,2.57
2023-01-19T14:45:21.452Z,2.65
2023-01-19T14:47:57.722Z,2.61
2023-01-19T14:50:33.865Z,2.68
2023-01-19T14:53:09.187Z,2.61
2023-01-19T14:55:47.578Z,2.57
2023-01-19T14:58:23.208Z,2.62
2023-01-19T15:00:56.398Z,2.53
2023-01-19T15:03:43.640Z,2.58
2023-01-19T15:06:19.673Z,2.76
2023-01-19T15:08:53.384Z,3.23
2023-01-19T15:11:30.445Z,3.16
2023-01-19T15:14:04.756Z,3.08
2023-01-19T15:16:37.587Z,3.21
2023-01-19T15:19:12.854Z,3.09
2023-01-19T15:21:46.807Z,2.86
2023-01-19T15:24:19.734Z,2.89
2023-01-19T15:26:52.504Z,3.06
2023-01-19T15:29:29.213Z,3.14
2023-01-19T15:32:03.823Z,2.56
2023-01-19T15:34:36.605Z,2.41
2023-01-19T15:37:09.399Z,2.39
2023-01-19T15:39:42.245Z,2.32
2023-01-19T15:42:16.142Z,2.22
2023-01-19T15:44:50.195Z,2.23
2023-01-19T15:47:22.983Z,2.13
2023-01-19T15:49:55.831Z,1.92
2023-01-19T15:52:28.729Z,2.02
2023-01-19T15:55:01.647Z,1.87
2023-01-19T15:57:35.426Z,1.93
2023-01-19T16:00:11.549Z,1.70
2023-01-19T16:02:45.175Z,1.84
2023-01-19T16:05:18.253Z,1.84
2023-01-19T16:07:51.145Z,1.80
2023-01-19T16:10:24.299Z,1.71
2023-01-19T16:12:57.100Z,1.64
2023-01-19T16:15:31.501Z,1.64
2023-01-19T16:18:05.188Z,1.48
2023-01-19T16:20:40.614Z,1.58
2023-01-19T16:23:15.235Z,1.52
2023-01-19T16:25:56.177Z,1.58
2023-01-19T16:28:28.988Z,1.49
2023-01-19T16:31:03.662Z,1.48
2023-01-19T16:33:36.451Z,1.38
2023-01-19T16:36:20.833Z,1.14
2023-01-19T16:38:54.553Z,1.23
2023-01-19T16:41:28.201Z,1.35
2023-01-19T16:44:01.452Z,1.21
2023-01-19T16:46:37.783Z,1.21
2023-01-19T16:49:14.738Z,1.16
2023-01-19T16:51:48.812Z,1.11
2023-01-19T16:54:23.428Z,1.06
2023-01-19T16:56:58.269Z,1.19
2023-01-19T16:59:31.063Z,1.12
2023-01-19T17:02:05.442Z,0.97
2023-01-19T17:04:38.520Z,1.20
2023-01-19T17:07:11.303Z,1.20
2023-01-19T17:09:44.608Z,1.21
2023-01-19T17:12:17.429Z,1.20
2023-01-19T17:14:50.630Z,1.26
2023-01-19T17:17:24.764Z,1.24
2023-01-19T17:19:57.582Z,1.24
2023-01-19T17:22:30.400Z,1.16
2023-01-19T17:25:03.535Z,1.10
2023-01-19T17:27:36.546Z,1.22
2023-01-19T17:30:11.114Z,1.18
2023-01-19T17:32:45.490Z,1.24
2023-01-19T17:35:18.531Z,1.10
2023-01-19T17:37:53.908Z,1.19
2023-01-19T17:40:26.940Z,1.14
2023-01-19T17:42:59.730Z,1.16
2023-01-19T17:45:32.879Z,1.12
2023-01-19T17:48:08.260Z,1.00
2023-01-19T17:50:41.082Z,1.09
2023-01-19T17:53:14.301Z,1.00
2023-01-19T17:55:47.533Z,1.07
2023-01-19T17:58:20.319Z,1.07
2023-01-19T18:00:53.111Z,0.98
2023-01-19T18:03:27.355Z,0.78
2023-01-19T18:06:00.217Z,1.00
2023-01-19T18:08:34.575Z,0.75
2023-01-19T18:11:08.382Z,0.84
2023-01-19T18:13:43.642Z,0.83
2023-01-19T18:16:18.655Z,0.95
2023-01-19T18:18:54.091Z,0.92
2023-01-19T18:21:30.599Z,0.74
2023-01-19T18:24:05.463Z,0.87
2023-01-19T18:26:38.847Z,0.89
2023-01-19T18:29:11.843Z,0.94
2023-01-19T18:31:44.930Z,0.90
2023-01-19T18:34:19.169Z,0.95
2023-01-19T18:36:52.215Z,0.96
2023-01-19T18:39:25.020Z,0.91
2023-01-19T18:41:57.817Z,0.94
2023-01-19T18:44:30.902Z,0.94
2023-01-19T18:47:03.683Z,0.93
2023-01-19T18:49:37.812Z,0.97
2023-01-19T18:52:10.693Z,0.96
2023-01-19T18:54:43.514Z,0.96
2023-01-19T18:57:17.772Z,0.94
2023-01-19T18:59:50.611Z,0.89
2023-01-19T19:02:24.199Z,0.96
2023-01-19T19:04:58.449Z,0.85
2023-01-19T19:07:31.405Z,0.91
2023-01-19T19:10:05.017Z,1.01
2023-01-19T19:12:37.813Z,0.94
2023-01-19T19:15:11.592Z,0.94
2023-01-19T19:17:44.380Z,1.08
2023-01-19T19:20:19.466Z,1.09
2023-01-19T19:22:52.317Z,0.98
2023-01-19T19:25:25.205Z,1.11
2023-01-19T19:27:57.969Z,1.10
2023-01-19T19:30:32.419Z,1.04
2023-01-19T19:33:05.463Z,1.08
2023-01-19T19:35:39.588Z,1.05
2023-01-19T19:38:12.372Z,1.07
2023-01-19T19:40:45.490Z,1.07
2023-01-19T19:43:19.169Z,1.07
2023-01-19T19:45:59.914Z,1.06
2023-01-19T19:48:33.114Z,1.06
2023-01-19T19:51:17.599Z,1.03
2023-01-19T19:53:52.397Z,1.04
2023-01-19T19:56:27.828Z,1.03
2023-01-19T19:59:01.955Z,1.02
2023-01-19T20:01:34.921Z,0.99
2023-01-19T20:04:10.546Z,1.05
2023-01-19T20:06:45.005Z,0.96
2023-01-19T20:09:18.276Z,0.98
2023-01-19T20:11:52.168Z,0.98
2023-01-19T20:14:25.216Z,1.02
2023-01-19T20:16:57.942Z,1.04
2023-01-19T20:19:32.562Z,0.92
2023-01-19T20:22:07.962Z,1.07
2023-01-19T20:24:40.738Z,1.01
2023-01-19T20:27:13.599Z,1.05
2023-01-19T20:29:51.431Z,1.08
2023-01-19T20:32:24.585Z,1.08
2023-01-19T20:34:57.451Z,1.08
2023-01-19T20:37:31.584Z,1.10
2023-01-19T20:40:05.215Z,1.04
2023-01-19T20:42:41.146Z,1.09
2023-01-19T20:45:14.272Z,1.10
2023-01-19T20:47:47.164Z,1.10
2023-01-19T20:50:20.052Z,1.13
2023-01-19T20:52:54.601Z,1.12
2023-01-19T20:55:27.959Z,1.15
2023-01-19T20:58:00.799Z,1.13
2023-01-19T21:00:34.527Z,1.22
2023-01-19T21:03:07.312Z,1.23
2023-01-19T21:05:40.081Z,1.20
2023-01-19T21:08:14.819Z,1.17
2023-01-19T21:10:47.553Z,1.25
2023-01-19T21:13:20.331Z,1.26
2023-01-19T21:15:53.239Z,1.22
2023-01-19T21:18:27.775Z,1.25
2023-01-19T21:21:00.773Z,1.26
2023-01-19T21:23:35.199Z,1.26
2023-01-19T21:26:08.042Z,1.24
2023-01-19T21:28:41.243Z,1.23
2023-01-19T21:31:15.163Z,1.12
2023-01-19T21:33:49.078Z,1.15
2023-01-19T21:36:24.968Z,1.13
2023-01-19T21:39:01.249Z,1.09
2023-01-19T21:41:35.668Z,1.06
2023-01-19T21:44:08.812Z,1.08
2023-01-19T21:46:41.648Z,1.08
2023-01-19T21:49:18.011Z,1.14
2023-01-19T21:51:51.123Z,1.10
2023-01-19T21:54:25.274Z,1.19
2023-01-19T21:56:58.086Z,1.19
2023-01-19T21:59:30.883Z,1.19
2023-01-19T22:02:03.835Z,1.19
2023-01-19T22:04:36.688Z,1.19
2023-01-19T22:07:09.459Z,1.20
2023-01-19T22:09:43.674Z,1.20
2023-01-19T22:12:16.716Z,1.20
2023-01-19T22:14:49.450Z,1.14
2023-01-19T22:17:22.451Z,1.19
2023-01-19T22:19:55.172Z,1.15
2023-01-19T22:22:28.193Z,1.13
2023-01-19T22:25:02.291Z,1.14
2023-01-19T22:27:35.017Z,1.15
2023-01-19T22:30:09.206Z,1.11
2023-01-19T22:32:42.069Z,1.12
2023-01-19T22:35:15.397Z,1.12
2023-01-19T22:37:48.237Z,1.13
2023-01-19T22:40:22.429Z,1.17
2023-01-19T22:42:55.152Z,1.17
2023-01-19T22:45:27.920Z,1.18
2023-01-19T22:48:00.675Z,1.09
2023-01-19T22:50:33.426Z,1.12
2023-01-19T22:53:06.489Z,1.08
2023-01-19T22:55:40.634Z,1.16
2023-01-19T22:58:13.500Z,1.13
2023-01-19T23:00:46.332Z,1.06
2023-01-19T23:03:19.066Z,1.06
2023-01-19T23:05:51.874Z,1.06
2023-01-19T23:08:24.659Z,1.05
2023-01-19T23:10:58.919Z,1.07
2023-01-19T23:13:31.920Z,1.04
2023-01-19T23:16:05.929Z,0.92
2023-01-19T23:18:39.112Z,1.06
2023-01-19T23:21:14.294Z,1.03
2023-01-19T23:23:47.076Z,1.04
2023-01-19T23:26:22.098Z,1.08
2023-01-19T23:28:55.958Z,1.04
2023-01-19T23:31:31.046Z,1.06
2023-01-19T23:34:05.578Z,0.97
2023-01-19T23:36:40.201Z,1.03
2023-01-19T23:39:16.179Z,0.97
2023-01-19T23:41:50.970Z,0.98
2023-01-19T23:44:23.802Z,0.99
2023-01-19T23:46:57.903Z,0.97
2023-01-19T23:49:30.941Z,1.03
2023-01-19T23:52:05.626Z,0.99
2023-01-19T23:54:38.478Z,0.92
2023-01-19T23:57:12.624Z,0.98
2023-01-19T23:59:45.463Z,0.97
